createdAt,value
2019-06-07T00:01:21.344Z,59.10
2019-06-07T00:02:57.951Z,59.30
2019-06-07T00:04:33.503Z,59.30
2019-06-07T00:06:14.546Z,59.10
2019-06-07T00:07:47.404Z,59.10
2019-06-07T00:09:23.745Z,59.10
2019-06-07T00:10:59.295Z,59.00
2019-06-07T00:12:35.648Z,58.90
2019-06-07T00:14:14.673Z,58.80
2019-06-07T00:15:49.259Z,58.90
2019-06-07T00:17:24.817Z,59.10
2019-06-07T00:19:01.207Z,59.20
2019-06-07T00:20:36.789Z,59.30
2019-06-07T00:22:18.306Z,59.40
2019-06-07T00:23:50.380Z,59.50
2019-06-07T00:25:26.720Z,59.50
2019-06-07T00:27:01.355Z,59.60
2019-06-07T00:28:37.462Z,60.30
2019-06-07T00:30:44.628Z,59.60
2019-06-07T00:31:53.271Z,59.80
2019-06-07T00:33:29.028Z,59.80
2019-06-07T00:35:09.126Z,60.00
2019-06-07T00:36:44.972Z,60.00
2019-06-07T00:38:21.935Z,59.90
2019-06-07T00:40:13.534Z,59.90
2019-06-07T00:41:35.768Z,60.00
2019-06-07T00:43:16.363Z,60.00
2019-06-07T00:44:49.373Z,60.00
2019-06-07T00:46:25.399Z,59.10
2019-06-07T00:48:00.733Z,59.90
2019-06-07T00:49:41.085Z,59.90
2019-06-07T00:51:14.030Z,60.10
2019-06-07T00:54:28.419Z,60.20
2019-06-07T00:56:04.043Z,60.30
2019-06-07T00:57:40.635Z,60.40
2019-06-07T00:59:19.149Z,60.60
2019-06-07T01:00:54.488Z,60.60
2019-06-07T01:02:31.662Z,60.70
2019-06-07T01:04:07.505Z,60.80
2019-06-07T01:05:43.799Z,60.80
2019-06-07T01:07:21.923Z,61.40
2019-06-07T01:08:58.612Z,61.60
2019-06-07T01:10:52.320Z,61.60
2019-06-07T01:12:14.125Z,61.90
2019-06-07T01:13:50.306Z,61.80
2019-06-07T01:15:29.268Z,62.10
2019-06-07T01:17:27.747Z,62.40
2019-06-07T01:18:52.857Z,62.30
2019-06-07T01:20:28.413Z,62.40
2019-06-07T01:22:05.148Z,62.60
2019-06-07T01:25:23.875Z,63.30
2019-06-07T01:26:58.081Z,63.50
2019-06-07T01:28:34.421Z,63.60
2019-06-07T01:30:12.258Z,63.80
2019-06-07T01:31:48.591Z,63.90
2019-06-07T01:33:39.650Z,63.80
2019-06-07T01:35:02.213Z,63.70
2019-06-07T01:36:37.771Z,63.90
2019-06-07T01:38:14.354Z,63.90
2019-06-07T01:39:50.246Z,63.90
2019-06-07T01:41:28.385Z,64.00
2019-06-07T01:43:03.840Z,64.40
2019-06-07T01:44:40.182Z,64.80
2019-06-07T01:46:15.852Z,65.10
2019-06-07T01:47:53.169Z,65.00
2019-06-07T01:49:29.739Z,65.00
2019-06-07T01:51:07.626Z,65.00
2019-06-07T01:52:43.261Z,64.60
2019-06-07T01:54:52.229Z,65.40
2019-06-07T01:55:57.188Z,64.70
2019-06-07T01:57:45.655Z,64.70
2019-06-07T01:59:11.097Z,64.70
2019-06-07T02:00:48.308Z,64.40
2019-06-07T02:02:28.068Z,64.70
2019-06-07T02:04:02.051Z,64.70
2019-06-07T02:05:38.345Z,64.70
2019-06-07T02:07:14.717Z,64.90
2019-06-07T02:08:50.257Z,65.30
2019-06-07T02:10:30.296Z,65.10
2019-06-07T02:12:23.065Z,65.10
2019-06-07T02:13:42.542Z,65.10
2019-06-07T02:15:21.694Z,65.10
2019-06-07T02:16:56.541Z,65.10
2019-06-07T02:18:34.373Z,65.30
2019-06-07T02:20:10.980Z,65.40
2019-06-07T02:21:47.041Z,65.30
2019-06-07T02:23:27.542Z,65.40
2019-06-07T02:26:38.744Z,65.50
2019-06-07T02:28:38.487Z,65.60
2019-06-07T02:29:52.351Z,65.70
2019-06-07T02:31:36.257Z,65.70
2019-06-07T02:33:06.073Z,65.90
2019-06-07T02:34:41.586Z,65.90
2019-06-07T02:36:18.336Z,65.70
2019-06-07T02:37:53.892Z,65.70
2019-06-07T02:39:34.494Z,65.60
2019-06-07T02:41:07.822Z,65.70
2019-06-07T02:42:44.416Z,65.50
2019-06-07T02:44:19.955Z,65.40
2019-06-07T02:45:56.295Z,65.80
2019-06-07T02:47:35.943Z,65.30
2019-06-07T02:49:09.905Z,65.30
2019-06-07T02:50:45.641Z,65.30
2019-06-07T02:52:27.356Z,65.20
2019-06-07T02:53:59.508Z,65.20
2019-06-07T02:56:26.364Z,65.10
2019-06-07T02:57:13.114Z,65.20
2019-06-07T02:58:49.447Z,65.20
2019-06-07T03:01:05.492Z,65.20
2019-06-07T03:02:26.547Z,65.10
2019-06-07T03:04:02.041Z,64.90
2019-06-07T03:05:45.336Z,65.10
2019-06-07T03:07:22.089Z,65.10
2019-06-07T03:08:58.794Z,65.10
2019-06-07T03:10:37.819Z,65.20
2019-06-07T03:12:14.822Z,65.20
2019-06-07T03:13:51.339Z,65.30
2019-06-07T03:15:44.644Z,65.60
2019-06-07T03:17:34.881Z,65.50
2019-06-07T03:19:10.412Z,65.60
2019-06-07T03:21:04.562Z,65.30
2019-06-07T03:22:26.817Z,65.40
2019-06-07T03:24:03.433Z,65.50
2019-06-07T03:25:40.524Z,65.50
2019-06-07T03:27:43.213Z,65.50
2019-06-07T03:28:56.858Z,65.30
2019-06-07T03:30:48.033Z,65.40
2019-06-07T03:32:10.763Z,65.40
2019-06-07T03:33:47.088Z,65.30
2019-06-07T03:35:22.635Z,65.30
2019-06-07T03:36:58.979Z,65.20
2019-06-07T03:38:35.352Z,65.30
2019-06-07T03:40:13.214Z,65.30
2019-06-07T03:42:05.098Z,65.50
2019-06-07T03:43:27.422Z,65.50
2019-06-07T03:45:03.517Z,65.60
2019-06-07T03:46:41.416Z,65.70
2019-06-07T03:48:17.117Z,65.80
2019-06-07T03:49:53.777Z,65.90
2019-06-07T03:51:30.616Z,66.10
2019-06-07T03:53:07.384Z,66.30
2019-06-07T03:54:43.024Z,66.30
2019-06-07T03:56:19.730Z,66.40
2019-06-07T03:59:37.416Z,66.70
2019-06-07T04:01:10.813Z,66.90
2019-06-07T04:02:47.435Z,66.90
2019-06-07T04:04:22.959Z,67.00
2019-06-07T04:05:59.301Z,67.20
2019-06-07T04:07:38.779Z,67.20
2019-06-07T04:09:12.997Z,67.30
2019-06-07T04:10:59.667Z,67.20
2019-06-07T04:12:28.561Z,67.00
2019-06-07T04:14:04.396Z,66.70
2019-06-07T04:15:41.470Z,66.80
2019-06-07T04:17:18.139Z,66.60
2019-06-07T04:18:54.490Z,66.30
2019-06-07T04:20:32.594Z,66.00
2019-06-07T04:22:08.084Z,65.80
2019-06-07T04:23:45.689Z,65.60
2019-06-07T04:25:21.952Z,65.40
2019-06-07T04:26:58.773Z,65.20
2019-06-07T04:29:25.573Z,65.50
2019-06-07T04:30:13.303Z,65.00
2019-06-07T04:31:49.640Z,64.80
2019-06-07T04:33:25.473Z,64.80
2019-06-07T04:35:01.811Z,64.80
2019-06-07T04:36:52.753Z,64.80
2019-06-07T04:38:16.518Z,64.70
2019-06-07T04:39:53.821Z,64.90
2019-06-07T04:41:33.437Z,64.80
2019-06-07T04:43:10.811Z,64.80
2019-06-07T04:44:49.692Z,64.90
2019-06-07T04:46:25.389Z,64.80
2019-06-07T04:48:04.131Z,64.80
2019-06-07T04:49:43.466Z,64.90
2019-06-07T04:51:19.238Z,64.90
2019-06-07T04:52:54.924Z,64.80
2019-06-07T04:54:32.946Z,64.80
2019-06-07T04:56:08.523Z,64.80
2019-06-07T04:57:45.011Z,64.80
2019-06-07T05:00:00.784Z,65.00
2019-06-07T05:01:03.739Z,65.20
2019-06-07T05:02:42.745Z,65.40
2019-06-07T05:04:17.120Z,65.50
2019-06-07T05:05:52.738Z,65.90
2019-06-07T05:07:30.971Z,66.00
2019-06-07T05:09:07.670Z,66.30
2019-06-07T05:10:44.223Z,66.40
2019-06-07T05:12:20.224Z,66.20
2019-06-07T05:13:59.336Z,66.00
2019-06-07T05:15:37.171Z,66.00
2019-06-07T05:17:12.962Z,66.30
2019-06-07T05:18:48.535Z,65.70
2019-06-07T05:20:24.875Z,65.80
2019-06-07T05:22:04.906Z,65.70
2019-06-07T05:25:17.227Z,65.00
2019-06-07T05:26:53.644Z,64.70
2019-06-07T05:28:29.977Z,64.30
2019-06-07T05:30:36.560Z,64.00
2019-06-07T05:31:49.596Z,63.50
2019-06-07T05:33:26.399Z,63.20
2019-06-07T05:35:02.824Z,62.90
2019-06-07T05:36:42.503Z,62.10
2019-06-07T05:38:16.914Z,61.30
2019-06-07T05:39:53.305Z,60.30
2019-06-07T05:41:29.808Z,60.10
2019-06-07T05:43:07.571Z,59.70
2019-06-07T05:44:45.453Z,59.60
2019-06-07T05:46:21.179Z,59.30
2019-06-07T05:47:56.734Z,59.20
2019-06-07T05:49:35.562Z,58.80
2019-06-07T05:51:10.733Z,58.30
2019-06-07T05:52:47.675Z,57.70
2019-06-07T05:54:23.720Z,57.50
2019-06-07T05:56:00.070Z,57.00
2019-06-07T05:57:37.651Z,56.50
2019-06-07T05:59:14.980Z,56.40
2019-06-07T06:00:51.066Z,56.30
2019-06-07T06:02:27.631Z,56.00
2019-06-07T06:04:03.992Z,55.70
2019-06-07T06:05:45.851Z,55.70
2019-06-07T06:07:17.599Z,54.90
2019-06-07T06:09:12.810Z,54.60
2019-06-07T06:10:34.224Z,54.60
2019-06-07T06:12:10.565Z,54.00
2019-06-07T06:14:06.120Z,53.60
2019-06-07T06:15:41.539Z,53.20
2019-06-07T06:17:01.609Z,52.70
2019-06-07T06:18:38.132Z,52.80
2019-06-07T06:20:14.271Z,51.40
2019-06-07T06:21:50.630Z,51.20
2019-06-07T06:23:26.204Z,51.70
2019-06-07T06:25:30.806Z,51.70
2019-06-07T06:26:47.664Z,52.40
2019-06-07T06:28:18.241Z,51.20
2019-06-07T06:29:53.793Z,51.10
2019-06-07T06:31:30.216Z,50.50
2019-06-07T06:33:06.808Z,49.50
2019-06-07T06:34:46.957Z,49.00
2019-06-07T06:36:21.421Z,49.00
2019-06-07T06:37:59.455Z,48.30
2019-06-07T06:39:35.595Z,48.20
2019-06-07T06:41:16.243Z,48.00
2019-06-07T06:42:50.630Z,48.10
2019-06-07T06:44:27.273Z,48.50
2019-06-07T06:46:02.857Z,46.90
2019-06-07T06:47:40.686Z,46.80
2019-06-07T06:49:16.386Z,46.70
2019-06-07T06:50:52.883Z,46.10
2019-06-07T06:52:29.473Z,45.80
2019-06-07T06:54:05.859Z,45.90
2019-06-07T06:55:41.700Z,45.70
2019-06-07T06:57:20.187Z,45.50
2019-06-07T07:00:56.953Z,44.10
2019-06-07T07:02:26.334Z,43.30
2019-06-07T07:04:11.991Z,42.70
2019-06-07T07:05:41.489Z,42.30
2019-06-07T07:07:18.505Z,41.80
2019-06-07T07:08:55.275Z,41.30
2019-06-07T07:10:46.153Z,41.20
2019-06-07T07:12:23.760Z,41.00
2019-06-07T07:13:59.662Z,41.10
2019-06-07T07:15:36.001Z,41.50
2019-06-07T07:17:12.553Z,41.30
2019-06-07T07:18:51.616Z,40.90
2019-06-07T07:20:26.420Z,40.90
2019-06-07T07:22:02.768Z,40.60
2019-06-07T07:23:38.310Z,40.10
2019-06-07T07:25:14.844Z,40.00
2019-06-07T07:26:53.879Z,40.00
2019-06-07T07:28:29.050Z,40.00
2019-06-07T07:31:50.306Z,39.60
2019-06-07T07:33:23.833Z,39.50
2019-06-07T07:35:00.851Z,39.60
2019-06-07T07:36:40.048Z,39.70
2019-06-07T07:38:16.516Z,39.70
2019-06-07T07:40:00.889Z,39.60
2019-06-07T07:41:30.122Z,39.60
2019-06-07T07:43:06.494Z,40.00
2019-06-07T07:44:43.256Z,40.40
2019-06-07T07:46:29.250Z,40.70
2019-06-07T07:48:13.770Z,40.80
2019-06-07T07:49:35.601Z,41.10
2019-06-07T07:51:11.974Z,41.50
2019-06-07T07:52:49.118Z,41.70
2019-06-07T07:54:25.708Z,41.90
2019-06-07T07:56:01.430Z,41.90
2019-06-07T07:57:37.873Z,42.20
2019-06-07T07:59:13.418Z,42.20
2019-06-07T08:00:54.884Z,42.50
2019-06-07T08:02:28.646Z,42.50
2019-06-07T08:04:05.021Z,42.00
2019-06-07T08:05:43.329Z,42.30
2019-06-07T08:07:18.888Z,42.50
2019-06-07T08:08:56.964Z,42.80
2019-06-07T08:10:32.882Z,43.50
2019-06-07T08:12:08.401Z,43.70
2019-06-07T08:13:45.686Z,44.10
2019-06-07T08:15:21.484Z,44.40
2019-06-07T08:16:59.270Z,44.70
2019-06-07T08:18:34.912Z,44.80
2019-06-07T08:20:11.825Z,45.00
2019-06-07T08:21:49.109Z,45.60
2019-06-07T08:23:26.741Z,45.70
2019-06-07T08:25:04.456Z,46.10
2019-06-07T08:26:41.849Z,46.90
2019-06-07T08:28:18.372Z,46.40
2019-06-07T08:30:18.488Z,46.30
2019-06-07T08:31:32.977Z,46.40
2019-06-07T08:33:25.512Z,46.30
2019-06-07T08:34:49.067Z,46.40
2019-06-07T08:36:40.787Z,46.50
2019-06-07T08:39:40.501Z,45.40
2019-06-07T08:41:16.440Z,45.60
2019-06-07T08:43:10.873Z,45.60
2019-06-07T08:44:30.462Z,45.30
2019-06-07T08:46:08.007Z,45.50
2019-06-07T08:47:44.979Z,45.70
2019-06-07T08:49:21.301Z,45.50
2019-06-07T08:51:06.561Z,45.20
2019-06-07T08:52:37.975Z,45.30
2019-06-07T08:54:22.533Z,45.30
2019-06-07T08:55:58.318Z,45.40
2019-06-07T08:57:28.867Z,45.20
2019-06-07T08:59:11.133Z,45.20
2019-06-07T09:00:46.527Z,45.00
2019-06-07T09:02:23.826Z,45.00
2019-06-07T09:04:05.778Z,45.10
2019-06-07T09:05:36.390Z,44.50
2019-06-07T09:07:19.580Z,44.40
2019-06-07T09:08:51.937Z,44.30
2019-06-07T09:10:30.064Z,44.20
2019-06-07T09:12:10.811Z,43.70
2019-06-07T09:13:43.975Z,43.60
2019-06-07T09:15:23.850Z,43.70
2019-06-07T09:17:02.576Z,43.70
2019-06-07T09:18:43.151Z,43.40
2019-06-07T09:20:35.889Z,42.90
2019-06-07T09:21:54.604Z,42.90
2019-06-07T09:23:31.359Z,43.00
2019-06-07T09:25:20.647Z,42.60
2019-06-07T09:26:48.740Z,42.80
2019-06-07T09:28:25.901Z,42.80
2019-06-07T09:30:07.651Z,42.40
2019-06-07T09:31:51.967Z,42.50
2019-06-07T09:33:16.873Z,42.50
2019-06-07T09:34:53.202Z,43.40
2019-06-07T09:36:28.758Z,43.00
2019-06-07T09:38:18.029Z,42.50
2019-06-07T09:39:43.177Z,43.10
2019-06-07T09:41:19.514Z,42.90
2019-06-07T09:43:48.187Z,42.90
2019-06-07T09:44:33.562Z,42.40
2019-06-07T09:46:12.822Z,42.40
2019-06-07T09:47:47.350Z,42.50
2019-06-07T09:49:31.886Z,42.10
2019-06-07T09:51:09.723Z,42.10
2019-06-07T09:52:57.223Z,42.00
2019-06-07T09:55:02.611Z,42.00
2019-06-07T09:55:54.666Z,41.60
2019-06-07T09:57:31.040Z,42.00
2019-06-07T09:59:11.760Z,41.90
2019-06-07T10:00:44.701Z,41.80
2019-06-07T10:02:20.314Z,42.00
2019-06-07T10:04:02.378Z,42.60
2019-06-07T10:05:34.248Z,42.60
2019-06-07T10:07:28.614Z,41.50
2019-06-07T10:12:04.570Z,42.20
2019-06-07T10:13:41.399Z,42.20
2019-06-07T10:15:17.903Z,42.20
2019-06-07T10:16:54.235Z,42.20
2019-06-07T10:18:29.805Z,42.30
2019-06-07T10:20:08.066Z,43.00
2019-06-07T10:21:43.625Z,42.30
2019-06-07T10:23:19.994Z,42.20
2019-06-07T10:24:55.717Z,42.60
2019-06-07T10:26:32.377Z,42.80
2019-06-07T10:28:08.442Z,43.20
2019-06-07T10:29:45.731Z,43.60
2019-06-07T10:31:21.312Z,43.60
2019-06-07T10:32:57.637Z,43.70
2019-06-07T10:34:33.240Z,43.90
2019-06-07T10:36:10.729Z,44.40
2019-06-07T10:37:46.435Z,44.00
2019-06-07T10:39:23.044Z,44.00
2019-06-07T10:40:58.608Z,44.50
2019-06-07T10:42:34.959Z,44.30
2019-06-07T10:44:11.451Z,44.50
2019-06-07T10:45:47.936Z,44.90
2019-06-07T10:47:23.496Z,44.40
2019-06-07T10:49:00.091Z,44.20
2019-06-07T10:50:35.681Z,43.70
2019-06-07T10:52:13.330Z,43.40
2019-06-07T10:53:48.981Z,43.10
2019-06-07T10:55:25.653Z,43.00
2019-06-07T10:57:02.841Z,43.30
2019-06-07T10:58:39.263Z,42.90
2019-06-07T11:00:17.529Z,42.60
2019-06-07T11:01:54.106Z,42.80
2019-06-07T11:03:29.677Z,42.70
2019-06-07T11:05:12.147Z,42.70
2019-06-07T11:06:46.341Z,42.80
2019-06-07T11:08:24.798Z,43.00
2019-06-07T11:10:07.548Z,43.50
2019-06-07T11:11:38.498Z,43.50
2019-06-07T11:13:14.494Z,43.60
2019-06-07T11:14:51.025Z,43.90
2019-06-07T11:16:26.597Z,43.90
2019-06-07T11:18:03.021Z,44.20
2019-06-07T11:19:38.665Z,44.50
2019-06-07T11:21:16.280Z,44.60
2019-06-07T11:22:52.079Z,45.00
2019-06-07T11:24:28.408Z,45.20
2019-06-07T11:26:03.982Z,45.00
2019-06-07T11:27:40.330Z,44.80
2019-06-07T11:29:15.984Z,44.60
2019-06-07T11:30:52.415Z,44.10
2019-06-07T11:32:28.121Z,43.90
2019-06-07T11:34:04.471Z,43.90
2019-06-07T11:35:40.018Z,44.20
2019-06-07T11:37:16.425Z,43.90
2019-06-07T11:38:53.048Z,44.20
2019-06-07T11:40:35.326Z,44.20
2019-06-07T11:42:07.934Z,44.70
2019-06-07T11:43:44.799Z,44.60
2019-06-07T11:45:23.753Z,44.40
2019-06-07T11:46:59.036Z,44.40
2019-06-07T11:48:34.612Z,44.40
2019-06-07T11:50:11.910Z,44.70
2019-06-07T11:51:47.480Z,45.00
2019-06-07T11:53:23.826Z,44.50
2019-06-07T11:54:59.718Z,44.60
2019-06-07T11:56:36.376Z,45.10
2019-06-07T11:58:16.452Z,45.00
2019-06-07T11:59:49.952Z,45.40
2019-06-07T12:01:25.526Z,45.70
2019-06-07T12:03:02.201Z,45.40
2019-06-07T12:04:38.036Z,44.50
2019-06-07T12:06:15.979Z,44.30
2019-06-07T12:07:56.984Z,44.50
2019-06-07T12:09:31.925Z,44.80
2019-06-07T12:11:08.076Z,44.30
2019-06-07T12:12:44.737Z,43.60
2019-06-07T12:14:20.285Z,43.40
2019-06-07T12:15:56.905Z,43.30
2019-06-07T12:17:32.444Z,43.40
2019-06-07T12:19:09.718Z,43.10
2019-06-07T12:20:45.402Z,43.50
2019-06-07T12:22:21.730Z,43.70
2019-06-07T12:23:57.450Z,43.30
2019-06-07T12:25:33.850Z,42.60
2019-06-07T12:27:10.321Z,42.70
2019-06-07T12:28:47.983Z,42.00
2019-06-07T12:30:28.077Z,42.50
2019-06-07T12:32:04.764Z,42.50
2019-06-07T12:33:40.290Z,42.50
2019-06-07T12:35:19.824Z,42.70
2019-06-07T12:36:55.586Z,42.10
2019-06-07T12:38:31.900Z,42.50
2019-06-07T12:40:09.939Z,42.70
2019-06-07T12:41:46.307Z,42.40
2019-06-07T12:43:23.211Z,42.20
2019-06-07T12:44:59.785Z,41.90
2019-06-07T12:46:35.668Z,42.00
2019-06-07T12:48:16.301Z,41.70
2019-06-07T12:49:49.580Z,41.70
2019-06-07T12:51:26.053Z,41.10
2019-06-07T12:53:01.854Z,41.30
2019-06-07T12:54:38.188Z,41.60
2019-06-07T12:56:13.770Z,41.90
2019-06-07T12:57:50.080Z,41.70
2019-06-07T12:59:26.704Z,41.50
2019-06-07T13:01:03.056Z,41.60
2019-06-07T13:02:38.691Z,41.80
2019-06-07T13:04:16.262Z,42.10
2019-06-07T13:05:52.001Z,41.70
2019-06-07T13:07:28.355Z,41.90
2019-06-07T13:09:04.510Z,42.20
2019-06-07T13:10:40.815Z,42.30
2019-06-07T13:12:17.543Z,41.50
2019-06-07T13:13:53.970Z,41.60
2019-06-07T13:15:29.525Z,41.30
2019-06-07T13:17:05.863Z,41.10
2019-06-07T13:18:41.586Z,41.40
2019-06-07T13:20:20.435Z,41.00
2019-06-07T13:21:56.061Z,41.20
2019-06-07T13:23:32.394Z,41.40
2019-06-07T13:25:09.366Z,41.30
2019-06-07T13:26:45.724Z,41.20
2019-06-07T13:28:22.661Z,40.70
2019-06-07T13:29:59.475Z,40.60
2019-06-07T13:31:35.012Z,40.50
2019-06-07T13:33:11.339Z,40.30
2019-06-07T13:34:46.890Z,40.70
2019-06-07T13:36:24.373Z,40.30
2019-06-07T13:38:00.467Z,40.10
2019-06-07T13:39:36.812Z,40.40
2019-06-07T13:41:12.378Z,40.70
2019-06-07T13:42:48.866Z,41.00
2019-06-07T13:44:25.383Z,40.40
2019-06-07T13:46:01.725Z,40.30
2019-06-07T13:47:37.353Z,40.00
2019-06-07T13:49:13.693Z,40.00
2019-06-07T13:50:49.235Z,40.00
2019-06-07T13:52:25.568Z,40.30
2019-06-07T13:54:02.461Z,40.70
2019-06-07T13:55:38.788Z,40.30
2019-06-07T13:57:14.338Z,40.70
2019-06-07T13:58:50.667Z,40.30
2019-06-07T14:00:26.779Z,40.70
2019-06-07T14:02:03.308Z,40.70
2019-06-07T14:03:38.847Z,40.90
2019-06-07T14:05:15.517Z,40.60
2019-06-07T14:06:51.054Z,40.70
2019-06-07T14:08:27.766Z,41.10
2019-06-07T14:10:06.689Z,41.10
2019-06-07T14:11:50.620Z,41.30
2019-06-07T14:13:21.463Z,41.30
2019-06-07T14:14:57.945Z,41.20
2019-06-07T14:16:33.498Z,41.50
2019-06-07T14:18:09.827Z,41.90
2019-06-07T14:19:45.432Z,42.30
2019-06-07T14:21:22.540Z,42.40
2019-06-07T14:22:59.503Z,42.40
2019-06-07T14:24:35.890Z,42.60
2019-06-07T14:26:11.448Z,42.80
2019-06-07T14:27:47.807Z,43.00
2019-06-07T14:29:23.632Z,43.30
2019-06-07T14:31:00.040Z,43.40
2019-06-07T14:32:35.638Z,43.30
2019-06-07T14:34:11.973Z,43.30
2019-06-07T14:35:47.510Z,43.30
2019-06-07T14:37:24.851Z,43.80
2019-06-07T14:39:01.894Z,43.80
2019-06-07T14:40:39.986Z,43.90
2019-06-07T14:42:15.523Z,43.70
2019-06-07T14:43:51.924Z,43.90
2019-06-07T14:45:27.749Z,44.10
2019-06-07T14:47:04.116Z,44.20
2019-06-07T14:48:39.666Z,44.20
2019-06-07T14:50:16.690Z,44.60
2019-06-07T14:51:52.565Z,44.60
2019-06-07T14:53:28.898Z,44.90
2019-06-07T14:55:06.142Z,44.90
2019-06-07T14:56:42.545Z,45.20
2019-06-07T14:58:18.070Z,45.50
2019-06-07T14:59:57.314Z,45.20
2019-06-07T15:01:33.506Z,45.30
2019-06-07T15:03:11.755Z,45.10
2019-06-07T15:04:48.114Z,45.50
2019-06-07T15:06:24.518Z,45.90
2019-06-07T15:08:00.064Z,46.00
2019-06-07T15:09:36.718Z,46.20
2019-06-07T15:11:12.289Z,46.00
2019-06-07T15:12:48.628Z,45.80
2019-06-07T15:14:24.452Z,45.80
2019-06-07T15:16:00.761Z,46.10
2019-06-07T15:17:36.341Z,46.20
2019-06-07T15:19:12.913Z,46.40
2019-06-07T15:20:48.471Z,46.70
2019-06-07T15:22:25.028Z,47.30
2019-06-07T15:24:00.636Z,47.00
2019-06-07T15:25:36.917Z,46.60
2019-06-07T15:27:12.461Z,46.70
2019-06-07T15:28:48.820Z,46.70
2019-06-07T15:30:25.381Z,46.80
2019-06-07T15:32:01.708Z,46.90
2019-06-07T15:33:38.544Z,47.00
2019-06-07T15:35:16.081Z,47.00
2019-06-07T15:36:51.705Z,47.10
2019-06-07T15:38:28.876Z,46.90
2019-06-07T15:40:05.975Z,46.80
2019-06-07T15:41:42.383Z,47.20
2019-06-07T15:43:19.547Z,46.60
2019-06-07T15:44:56.148Z,45.80
2019-06-07T15:46:33.601Z,46.30
2019-06-07T15:48:11.113Z,46.20
2019-06-07T15:49:46.644Z,46.10
2019-06-07T15:51:22.961Z,46.30
2019-06-07T15:52:58.499Z,46.40
2019-06-07T15:54:34.873Z,46.40
2019-06-07T15:56:10.544Z,46.50
2019-06-07T15:57:46.876Z,46.30
2019-06-07T15:59:22.420Z,46.40
2019-06-07T16:00:58.771Z,46.80
2019-06-07T16:02:35.669Z,46.70
2019-06-07T16:04:12.028Z,46.80
2019-06-07T16:05:47.561Z,46.70
2019-06-07T16:07:24.145Z,46.80
2019-06-07T16:08:59.938Z,46.90
2019-06-07T16:10:36.834Z,46.90
2019-06-07T16:12:12.631Z,46.70
2019-06-07T16:13:48.947Z,46.50
2019-06-07T16:15:24.660Z,46.30
2019-06-07T16:17:00.956Z,46.60
2019-06-07T16:18:37.642Z,45.90
2019-06-07T16:20:14.353Z,46.30
2019-06-07T16:21:50.152Z,46.30
2019-06-07T16:23:26.476Z,46.40
2019-06-07T16:25:02.154Z,46.20
2019-06-07T16:26:38.583Z,46.20
2019-06-07T16:28:14.112Z,46.20
2019-06-07T16:29:50.440Z,46.40
2019-06-07T16:31:26.000Z,46.50
2019-06-07T16:33:02.599Z,46.80
2019-06-07T16:34:39.889Z,46.90
2019-06-07T16:36:16.636Z,47.00
2019-06-07T16:37:52.668Z,47.20
2019-06-07T16:39:29.190Z,47.10
2019-06-07T16:41:05.275Z,47.10
2019-06-07T16:42:42.905Z,47.00
2019-06-07T16:44:18.717Z,47.10
2019-06-07T16:45:55.042Z,47.10
2019-06-07T16:47:30.593Z,46.90
2019-06-07T16:49:07.026Z,46.60
2019-06-07T16:50:42.993Z,46.40
2019-06-07T16:52:19.465Z,46.40
2019-06-07T16:53:55.005Z,46.50
2019-06-07T16:55:31.349Z,46.70
2019-06-07T16:57:06.934Z,46.80
2019-06-07T16:58:44.400Z,46.80
2019-06-07T17:00:20.772Z,47.00
2019-06-07T17:01:57.110Z,47.30
2019-06-07T17:03:33.752Z,47.40
2019-06-07T17:05:11.290Z,47.60
2019-06-07T17:06:48.188Z,47.70
2019-06-07T17:08:24.767Z,47.80
2019-06-07T17:10:00.615Z,47.60
2019-06-07T17:11:38.224Z,47.70
2019-06-07T17:13:13.753Z,47.60
2019-06-07T17:14:50.102Z,47.50
2019-06-07T17:16:25.626Z,46.90
2019-06-07T17:18:02.048Z,46.90
2019-06-07T17:19:38.987Z,46.90
2019-06-07T17:21:20.052Z,46.80
2019-06-07T17:22:56.376Z,46.80
2019-06-07T17:24:31.919Z,46.40
2019-06-07T17:26:08.330Z,47.00
2019-06-07T17:27:44.029Z,47.00
2019-06-07T17:29:20.363Z,47.10
2019-06-07T17:30:57.927Z,47.30
2019-06-07T17:32:47.653Z,47.40
2019-06-07T17:34:11.759Z,47.60
2019-06-07T17:35:48.545Z,47.70
2019-06-07T17:37:24.475Z,47.80
2019-06-07T17:39:00.822Z,47.80
2019-06-07T17:40:38.141Z,47.80
2019-06-07T17:42:14.806Z,47.70
2019-06-07T17:43:58.535Z,47.80
2019-06-07T17:45:29.640Z,47.80
2019-06-07T17:47:05.161Z,47.80
2019-06-07T17:48:43.508Z,47.80
2019-06-07T17:50:20.636Z,48.00
2019-06-07T17:51:57.016Z,47.90
2019-06-07T17:53:32.602Z,47.90
2019-06-07T17:55:13.268Z,47.90
2019-06-07T17:56:50.512Z,48.00
2019-06-07T17:58:27.897Z,47.90
2019-06-07T18:00:27.617Z,47.90
2019-06-07T18:02:02.365Z,48.00
2019-06-07T18:03:22.812Z,48.30
2019-06-07T18:04:58.362Z,48.40
2019-06-07T18:06:41.086Z,48.30
2019-06-07T18:08:17.523Z,48.30
2019-06-07T18:09:56.146Z,48.30
2019-06-07T18:11:32.191Z,48.40
2019-06-07T18:13:09.551Z,48.50
2019-06-07T18:14:45.787Z,48.50
2019-06-07T18:16:22.809Z,48.60
2019-06-07T18:17:58.353Z,48.80
2019-06-07T18:19:35.980Z,49.00
2019-06-07T18:21:11.575Z,48.90
2019-06-07T18:22:49.030Z,49.00
2019-06-07T18:24:24.594Z,48.90
2019-06-07T18:26:00.982Z,49.00
2019-06-07T18:27:36.526Z,49.10
2019-06-07T18:29:12.850Z,49.20
2019-06-07T18:30:48.630Z,49.20
2019-06-07T18:32:25.095Z,49.30
2019-06-07T18:34:00.929Z,49.50
2019-06-07T18:35:37.435Z,49.60
2019-06-07T18:37:12.982Z,49.70
2019-06-07T18:38:49.311Z,49.60
2019-06-07T18:40:24.823Z,49.70
2019-06-07T18:42:01.147Z,49.90
2019-06-07T18:43:36.687Z,49.90
2019-06-07T18:45:13.514Z,49.90
2019-06-07T18:46:50.127Z,50.10
2019-06-07T18:48:26.451Z,50.10
2019-06-07T18:50:02.269Z,50.10
2019-06-07T18:51:38.951Z,50.10
2019-06-07T18:53:14.577Z,50.10
2019-06-07T18:54:53.147Z,50.10
2019-06-07T18:56:28.669Z,50.40
2019-06-07T18:58:05.301Z,50.30
2019-06-07T18:59:40.922Z,50.40
2019-06-07T19:01:17.250Z,50.40
2019-06-07T19:02:53.972Z,50.60
2019-06-07T19:04:30.431Z,50.60
2019-06-07T19:06:05.982Z,50.60
2019-06-07T19:07:42.307Z,50.70
2019-06-07T19:09:17.874Z,50.70
2019-06-07T19:10:54.820Z,50.80
2019-06-07T19:12:30.804Z,50.90
2019-06-07T19:14:07.133Z,51.00
2019-06-07T19:15:43.493Z,51.10
2019-06-07T19:17:19.907Z,51.10
2019-06-07T19:18:55.923Z,51.10
2019-06-07T19:20:32.297Z,51.20
2019-06-07T19:22:07.934Z,51.30
2019-06-07T19:23:44.262Z,51.60
2019-06-07T19:25:20.913Z,51.60
2019-06-07T19:26:58.639Z,51.60
2019-06-07T19:28:34.277Z,51.60
2019-06-07T19:30:12.663Z,51.70
2019-06-07T19:31:48.591Z,51.80
2019-06-07T19:33:24.892Z,51.80
2019-06-07T19:35:01.539Z,52.00
2019-06-07T19:36:48.277Z,52.00
2019-06-07T19:38:17.067Z,51.90
2019-06-07T19:39:53.845Z,52.00
2019-06-07T19:41:29.353Z,52.00
2019-06-07T19:43:05.871Z,52.20
2019-06-07T19:44:53.085Z,52.40
2019-06-07T19:46:21.446Z,52.40
2019-06-07T19:47:57.132Z,52.60
2019-06-07T19:49:34.722Z,52.80
2019-06-07T19:51:10.264Z,52.70
2019-06-07T19:52:46.599Z,52.90
2019-06-07T19:54:23.130Z,52.90
2019-06-07T19:55:59.455Z,53.10
2019-06-07T19:57:43.278Z,53.20
2019-06-07T19:59:19.599Z,53.20
2019-06-07T20:00:55.543Z,53.40
2019-06-07T20:02:31.974Z,53.50
2019-06-07T20:04:07.541Z,53.60
2019-06-07T20:05:43.879Z,53.60
2019-06-07T20:07:19.401Z,53.60
2019-06-07T20:08:56.518Z,53.90
2019-06-07T20:10:32.296Z,54.10
2019-06-07T20:12:08.619Z,54.30
2019-06-07T20:13:44.181Z,54.30
2019-06-07T20:15:29.142Z,54.40
2019-06-07T20:16:59.524Z,54.50
2019-06-07T20:18:35.947Z,54.60
2019-06-07T20:20:12.213Z,54.70
2019-06-07T20:21:48.553Z,54.90
2019-06-07T20:23:24.392Z,54.90
2019-06-07T20:25:00.870Z,54.80
2019-06-07T20:26:39.426Z,54.80
2019-06-07T20:28:15.771Z,54.80
2019-06-07T20:29:51.309Z,54.90
2019-06-07T20:31:28.536Z,55.20
2019-06-07T20:33:04.115Z,55.30
2019-06-07T20:34:44.477Z,55.10
2019-06-07T20:36:17.643Z,55.30
2019-06-07T20:37:54.740Z,55.50
2019-06-07T20:39:30.295Z,55.30
2019-06-07T20:41:07.467Z,55.40
2019-06-07T20:42:43.078Z,55.40
2019-06-07T20:44:19.411Z,55.50
2019-06-07T20:45:54.942Z,55.50
2019-06-07T20:47:31.278Z,55.80
2019-06-07T20:49:06.809Z,55.80
2019-06-07T20:50:43.133Z,55.70
2019-06-07T20:52:18.693Z,56.00
2019-06-07T20:53:55.038Z,56.10
2019-06-07T20:55:30.836Z,56.10
2019-06-07T20:57:07.155Z,56.10
2019-06-07T20:58:42.713Z,56.30
2019-06-07T21:00:21.927Z,56.70
2019-06-07T21:01:58.717Z,56.70
2019-06-07T21:03:36.035Z,56.80